Aeroporto :
LOGIN :

Iscrizione | Disclaimer

   EN    FR    IT 

 










Sommario :    VFR   VFR Marginale   IFR   IFR Intensivo   IFR Molto Intensivo
Visibilità : 
Base nubi : 
>= 8 km
>= 3000ft
5 / 8 km
1000 / 3000 ft
1500m / 5 km
500 / 1000 ft
800 / 1500m
200 / 500 ft
< 800m
< 200 ft
Simboli :   Temporali  Nebbia  Neve Forte  Precipitazioni Forti  Vento > 20 kt
SIGMETs :   Varie  Temporali  Ghiacco  Turbolenza  Onda orograficha  Ceneri Vulcaniche







- Altitudine del aeroporto : 268 ft
- Codice IATA : BFS
- Carte del aeroporto


EGAA - Belfast Aldergrove

ULTIMO METAR :
  • 180720Z 22014KT 9999 FEW011 SCT016 BKN023 13/11 Q0994

METARs OBSOLETI :
  • 180650Z 22015KT 9999 SCT012 BKN017 13/11 Q0994
  • 180620Z 22013KT 9999 -RA SCT011 BKN015 13/11 Q0993
  • 180550Z 22014KT 9999 SCT012 BKN017 13/10 Q0993
  • 180520Z 21014KT 9999 SCT013 BKN018 BKN030 13/10 Q0993
  • 180450Z 21014KT 9999 SCT013 BKN017 13/10 Q0993

TAF TAF EGAA
Valido dal 18 a 06 ore il 19 a 06 ore UTC


180457Z 1806/1906 24012KT 9999 SCT020
TEMPO 1806/1808 24015G25KT 5000 SHRA SCT008 BKN014
TEMPO 1808/1821 7000 SHRA
PROB30
TEMPO 1814/1820 27015G25KT 4000 +SHRA +TSRA
PROB30
TEMPO 1822/1906 BKN012
Nessun NOTAM noto per questo aeroporto.



MetMap, La meteo Aeronautica in un colpo d'occhio ! - Copyright ORBIFLY Dicembre 2007 - Disclaimer

ORBIFLY MET'MAP TEAM :

Programmazione e sviluppo : Alexandra Zaïnal
Concezione e sviluppo : Baudouin d'Aumeries
Co-Programmazione e sviluppo : Marc-Olivier Méhu
Supporto tecnico e logistico : Manuel Goepfert
Aiuto per la traduzione : Arnaldo La Scala

Contatto : metmap@orbifly.com




FONTI E CREDITI :

   NOAA